Bippus, Indiana
Current Conditions -  °F | °C
As of 11:55 AM on Wednesday 22 Oct 2014 (Local Time) from KHHG Reporting Station
Scattered Clouds Scattered Clouds  
Wind Chill: 46°   Ceiling: Unl
Heat Index: 49°   Visibility: 10mi
Dew Point: 40°   Wind: 6mph
Humidity: 71%   Direction: 20°NNE
Pressure: 30.34"   Gusts: NA
Location:  40.94°N, 85.62°W
Report Text: KHHG 221555Z AUTO 02005KT 10SM SCT021 09/04 A3034 RMK AO2 T00930043
Loading
Personal Weather Stations






























Interactive Weather Map
Tropical Storm Tracking
New forecast layout! Learn more

10-Day Weather Forecast

Advertisements
Track Severe Weather on mobile